Time;durP1;ratioP1;P1;durP2;ratioP2;P2;SDS_P1;SDS_P2;PMS_P1;PMS_P2;Temp;Humidity;BMP_temperature;BMP_pressure;BME280_temperature;BME280_humidity;BME280_pressure;Samples;Min_cycle;Max_cycle;Signal;HPM_P1;HPM_P2
2021/09/29 00:01:53;;;;;;;12.85;5.80;;;;;;;;;;5037048;28;20026;-86
2021/09/29 00:04:18;;;;;;;11.98;6.13;;;;;;;;;;5036845;28;20052;-85
2021/09/29 00:06:43;;;;;;;24.00;7.95;;;;;;;;;;5003649;28;20029;-86
2021/09/29 00:09:09;;;;;;;12.77;6.40;;;;;;;;;;5026525;28;20010;-85
2021/09/29 00:11:34;;;;;;;13.05;6.72;;;;;;;;;;5025370;28;20025;-86
2021/09/29 00:14:01;;;;;;;16.55;6.50;;;;;;;;;;5040145;28;20029;-86
2021/09/29 00:16:26;;;;;;;25.27;9.05;;;;;;;;;;5038562;28;20029;-86
2021/09/29 00:18:52;;;;;;;16.00;6.55;;;;;;;;;;5037351;28;20550;-86
2021/09/29 00:21:17;;;;;;;11.38;6.93;;;;;;;;;;5037150;28;20025;-86
2021/09/29 00:23:42;;;;;;;12.40;6.97;;;;;;;;;;5036864;28;20056;-85
2021/09/29 00:26:08;;;;;;;15.73;6.55;;;;;;;;;;5036708;28;20021;-85
2021/09/29 00:28:33;;;;;;;13.32;6.47;;;;;;;;;;5037655;28;20504;-86
2021/09/29 00:31:03;;;;;;;13.73;6.75;;;;;;;;;;5036836;28;20416;-86
2021/09/29 00:33:29;;;;;;;16.45;6.20;;;;;;;;;;5036846;28;20026;-85
2021/09/29 00:35:54;;;;;;;12.85;6.75;;;;;;;;;;5036239;28;20029;-85
2021/09/29 00:38:20;;;;;;;15.43;6.30;;;;;;;;;;5036233;28;20022;-85
2021/09/29 00:40:45;;;;;;;12.32;6.28;;;;;;;;;;5022302;28;20395;-86
2021/09/29 00:43:11;;;;;;;11.65;6.53;;;;;;;;;;5039305;28;20001;-86
2021/09/29 00:45:36;;;;;;;16.70;6.13;;;;;;;;;;5044482;28;20045;-86
2021/09/29 00:48:02;;;;;;;13.90;6.22;;;;;;;;;;5035271;28;20492;-86
2021/09/29 00:50:27;;;;;;;8.38;6.05;;;;;;;;;;5034991;28;20026;-86
2021/09/29 00:52:53;;;;;;;11.82;6.32;;;;;;;;;;5035241;28;20268;-86
2021/09/29 00:55:18;;;;;;;11.98;6.68;;;;;;;;;;5035359;28;20029;-86
2021/09/29 00:57:44;;;;;;;13.32;7.22;;;;;;;;;;5029858;28;20030;-86
2021/09/29 01:00:10;;;;;;;8.93;6.03;;;;;;;;;;5014883;28;20029;-86
2021/09/29 01:02:36;;;;;;;12.10;5.97;;;;;;;;;;5016064;28;20017;-85
2021/09/29 01:05:03;;;;;;;16.05;6.63;;;;;;;;;;5014887;28;20575;-85
2021/09/29 01:07:37;;;;;;;14.98;6.68;;;;;;;;;;5014662;28;20076;-86
2021/09/29 01:10:13;;;;;;;11.02;6.57;;;;;;;;;;5014060;28;20028;-86
2021/09/29 01:13:13;;;;;;;16.30;7.10;;;;;;;;;;4996976;28;20413;-85
2021/09/29 01:15:47;;;;;;;13.75;6.60;;;;;;;;;;5014197;28;20053;-85
2021/09/29 01:18:15;;;;;;;12.13;6.57;;;;;;;;;;5016488;28;20141;-86
2021/09/29 01:21:14;;;;;;;9.27;6.78;;;;;;;;;;5032248;28;20018;-85
2021/09/29 01:24:09;;;;;;;14.95;7.03;;;;;;;;;;4962027;28;20060;-85
2021/09/29 01:26:38;;;;;;;9.02;6.30;;;;;;;;;;5016551;28;20026;-85
2021/09/29 01:29:06;;;;;;;13.30;7.07;;;;;;;;;;5033808;28;20112;-85
2021/09/29 01:31:33;;;;;;;15.70;7.22;;;;;;;;;;5035572;28;20084;-85
2021/09/29 01:34:00;;;;;;;11.45;7.15;;;;;;;;;;5034081;28;20448;-85
2021/09/29 01:36:26;;;;;;;13.32;6.70;;;;;;;;;;5034011;28;20652;-85
2021/09/29 01:38:55;;;;;;;11.98;6.63;;;;;;;;;;5033992;28;20021;-85
2021/09/29 01:41:26;;;;;;;20.95;7.47;;;;;;;;;;5019272;28;20404;-86
2021/09/29 01:43:52;;;;;;;18.90;7.50;;;;;;;;;;5016924;28;20143;-85
2021/09/29 01:46:19;;;;;;;16.58;7.55;;;;;;;;;;5034703;28;20052;-86
2021/09/29 01:49:01;;;;;;;15.55;8.15;;;;;;;;;;5017095;28;20030;-86
2021/09/29 01:51:27;;;;;;;12.10;7.88;;;;;;;;;;5034594;28;20466;-85
2021/09/29 01:53:56;;;;;;;19.30;8.82;;;;;;;;;;5016976;28;20108;-86
2021/09/29 01:56:22;;;;;;;18.33;8.02;;;;;;;;;;5034576;28;20031;-86
2021/09/29 01:58:47;;;;;;;16.38;9.00;;;;;;;;;;5016851;28;20151;-86
2021/09/29 02:01:14;;;;;;;17.73;7.60;;;;;;;;;;5019972;28;20058;-86
2021/09/29 02:03:46;;;;;;;18.35;8.45;;;;;;;;;;5017402;28;20025;-86
2021/09/29 02:06:12;;;;;;;14.43;8.77;;;;;;;;;;5030877;28;20113;-86
2021/09/29 02:08:38;;;;;;;20.33;7.95;;;;;;;;;;5004570;28;20523;-86
2021/09/29 02:11:04;;;;;;;14.90;7.82;;;;;;;;;;5015429;28;20136;-86
2021/09/29 02:13:30;;;;;;;13.88;7.75;;;;;;;;;;5018378;28;20053;-85
2021/09/29 02:15:55;;;;;;;13.30;7.95;;;;;;;;;;5013582;28;20497;-86
2021/09/29 02:18:21;;;;;;;13.10;7.97;;;;;;;;;;5030860;28;20478;-85
2021/09/29 02:20:46;;;;;;;23.08;8.13;;;;;;;;;;5032652;28;20021;-85
2021/09/29 02:23:11;;;;;;;20.58;7.72;;;;;;;;;;5033487;28;20053;-85
2021/09/29 02:25:37;;;;;;;13.48;7.32;;;;;;;;;;5003285;28;20401;-85
2021/09/29 02:28:02;;;;;;;17.30;7.72;;;;;;;;;;5037739;28;20104;-85
2021/09/29 02:30:28;;;;;;;12.43;6.30;;;;;;;;;;5015982;28;20087;-85
2021/09/29 02:32:53;;;;;;;13.88;6.95;;;;;;;;;;5036480;28;20465;-85
2021/09/29 02:35:19;;;;;;;19.35;7.78;;;;;;;;;;5016125;28;20549;-85
2021/09/29 02:37:44;;;;;;;12.73;7.00;;;;;;;;;;5015106;28;20033;-86
2021/09/29 02:40:10;;;;;;;10.93;7.30;;;;;;;;;;5033113;28;20503;-85
2021/09/29 02:42:35;;;;;;;11.48;6.65;;;;;;;;;;5032838;28;20079;-85
2021/09/29 02:45:01;;;;;;;11.05;7.18;;;;;;;;;;5032827;28;20051;-85
2021/09/29 02:47:27;;;;;;;13.60;7.57;;;;;;;;;;5015028;28;20445;-85
2021/09/29 02:49:52;;;;;;;10.63;6.63;;;;;;;;;;5032432;28;20048;-85
2021/09/29 02:52:17;;;;;;;14.85;6.57;;;;;;;;;;5015089;28;20116;-85
2021/09/29 02:54:43;;;;;;;14.63;6.35;;;;;;;;;;5032399;28;20084;-86
2021/09/29 02:57:08;;;;;;;11.00;6.57;;;;;;;;;;5031381;28;20550;-85
2021/09/29 02:59:33;;;;;;;11.82;6.38;;;;;;;;;;5015039;28;20123;-85
2021/09/29 03:01:59;;;;;;;9.85;6.15;;;;;;;;;;5033890;28;20071;-86
2021/09/29 03:04:24;;;;;;;11.18;6.53;;;;;;;;;;5034419;28;20041;-86
2021/09/29 03:06:49;;;;;;;11.93;6.88;;;;;;;;;;5016252;28;20516;-87
2021/09/29 03:09:15;;;;;;;16.42;6.40;;;;;;;;;;5019812;28;20052;-87
2021/09/29 03:11:41;;;;;;;16.80;7.15;;;;;;;;;;5018705;28;20113;-87
2021/09/29 03:14:07;;;;;;;14.00;7.45;;;;;;;;;;5002272;28;20092;-87
2021/09/29 03:16:32;;;;;;;12.65;6.57;;;;;;;;;;5018208;28;20061;-87
2021/09/29 03:18:57;;;;;;;16.65;7.35;;;;;;;;;;5016920;28;20029;-87
2021/09/29 03:21:23;;;;;;;14.70;6.60;;;;;;;;;;5014624;28;20097;-87
2021/09/29 03:23:48;;;;;;;16.55;7.22;;;;;;;;;;5016390;28;20093;-87
2021/09/29 03:26:14;;;;;;;14.10;6.75;;;;;;;;;;5015164;28;20033;-87
2021/09/29 03:28:39;;;;;;;15.05;7.43;;;;;;;;;;5013762;28;20117;-85
2021/09/29 03:31:05;;;;;;;13.38;6.95;;;;;;;;;;5013727;28;20048;-85
2021/09/29 03:33:30;;;;;;;11.65;6.80;;;;;;;;;;5017392;28;20079;-84
2021/09/29 03:35:55;;;;;;;9.77;6.15;;;;;;;;;;5000753;28;20029;-85
2021/09/29 03:38:21;;;;;;;12.02;6.20;;;;;;;;;;5019873;28;20026;-84
2021/09/29 03:40:46;;;;;;;12.45;6.90;;;;;;;;;;5034841;28;20021;-87
2021/09/29 03:43:12;;;;;;;14.43;6.78;;;;;;;;;;5043415;28;20112;-88
2021/09/29 03:45:37;;;;;;;13.30;6.57;;;;;;;;;;5025738;28;20064;-87
2021/09/29 03:48:03;;;;;;;11.18;6.80;;;;;;;;;;5022135;28;20022;-86
2021/09/29 03:50:29;;;;;;;9.63;7.00;;;;;;;;;;5030712;28;20022;-87
2021/09/29 03:52:54;;;;;;;12.73;6.40;;;;;;;;;;5036876;28;20037;-86
2021/09/29 03:55:22;;;;;;;14.63;7.10;;;;;;;;;;5024958;28;20029;-87
2021/09/29 03:57:47;;;;;;;15.75;6.88;;;;;;;;;;5019657;28;20462;-87
2021/09/29 04:00:13;;;;;;;8.45;6.53;;;;;;;;;;5019928;28;20057;-87
2021/09/29 04:02:40;;;;;;;13.15;6.88;;;;;;;;;;5017815;28;20022;-88
2021/09/29 04:05:07;;;;;;;11.60;6.43;;;;;;;;;;5002252;28;20026;-87
2021/09/29 04:07:33;;;;;;;13.70;6.78;;;;;;;;;;5019912;28;20050;-87
2021/09/29 04:09:58;;;;;;;15.02;6.88;;;;;;;;;;5019149;28;20041;-88
2021/09/29 04:12:24;;;;;;;16.20;7.03;;;;;;;;;;5021798;28;20045;-87
2021/09/29 04:14:50;;;;;;;12.52;7.05;;;;;;;;;;5022359;28;20029;-87
2021/09/29 04:17:15;;;;;;;14.27;6.45;;;;;;;;;;5022547;28;20202;-87
2021/09/29 04:19:41;;;;;;;12.27;6.95;;;;;;;;;;5019423;28;20025;-87
2021/09/29 04:22:12;;;;;;;12.15;6.47;;;;;;;;;;5045879;28;20028;-88
2021/09/29 04:24:39;;;;;;;14.80;6.85;;;;;;;;;;5057087;28;20048;-88
2021/09/29 04:27:07;;;;;;;15.73;6.88;;;;;;;;;;5044000;28;20029;-87
2021/09/29 04:29:32;;;;;;;10.93;5.93;;;;;;;;;;5024215;28;20032;-89
2021/09/29 04:31:58;;;;;;;16.95;6.15;;;;;;;;;;5040941;28;20034;-89
2021/09/29 04:34:23;;;;;;;15.10;6.63;;;;;;;;;;5022299;28;20050;-88
2021/09/29 04:36:49;;;;;;;15.43;6.22;;;;;;;;;;5022438;28;20026;-88
2021/09/29 04:39:14;;;;;;;15.10;7.32;;;;;;;;;;5022156;28;20030;-88
2021/09/29 04:41:40;;;;;;;13.70;6.22;;;;;;;;;;5023694;28;20024;-88
2021/09/29 04:44:06;;;;;;;13.82;6.28;;;;;;;;;;5021548;28;20477;-88
2021/09/29 04:46:31;;;;;;;13.52;6.30;;;;;;;;;;5029849;28;20037;-87
2021/09/29 04:48:57;;;;;;;10.98;5.78;;;;;;;;;;5022397;28;20040;-87
2021/09/29 04:51:22;;;;;;;16.27;6.72;;;;;;;;;;5023272;28;20030;-88
2021/09/29 04:53:47;;;;;;;16.45;5.88;;;;;;;;;;5022089;28;20061;-87
2021/09/29 04:56:14;;;;;;;13.93;6.50;;;;;;;;;;5021979;28;20018;-87
2021/09/29 04:58:40;;;;;;;11.88;6.03;;;;;;;;;;5022879;28;20026;-87
2021/09/29 05:01:05;;;;;;;17.50;6.25;;;;;;;;;;5022087;28;20021;-87
2021/09/29 05:03:33;;;;;;;10.85;6.35;;;;;;;;;;5021777;28;20037;-88
2021/09/29 05:05:58;;;;;;;13.95;6.60;;;;;;;;;;5027764;28;20017;-88
2021/09/29 05:08:25;;;;;;;15.82;5.95;;;;;;;;;;5042290;28;20033;-89
2021/09/29 05:11:02;;;;;;;13.00;6.05;;;;;;;;;;5016505;28;20025;-87
2021/09/29 05:13:31;;;;;;;16.75;5.95;;;;;;;;;;5022178;28;20025;-88
2021/09/29 05:16:01;;;;;;;10.43;5.38;;;;;;;;;;5021479;28;20120;-86
2021/09/29 05:18:27;;;;;;;11.20;5.50;;;;;;;;;;5021590;28;20022;-87
2021/09/29 05:20:53;;;;;;;9.30;5.72;;;;;;;;;;5023624;28;20018;-87
2021/09/29 05:23:19;;;;;;;16.20;6.97;;;;;;;;;;5021735;28;20022;-86
2021/09/29 05:25:45;;;;;;;12.57;5.75;;;;;;;;;;5022683;28;20113;-88
2021/09/29 05:28:13;;;;;;;12.75;5.60;;;;;;;;;;5023463;28;20045;-89
2021/09/29 05:30:39;;;;;;;10.52;5.40;;;;;;;;;;5022888;28;20101;-89
2021/09/29 05:33:04;;;;;;;11.75;6.53;;;;;;;;;;5021250;28;20493;-88
2021/09/29 05:35:30;;;;;;;9.10;5.80;;;;;;;;;;5003827;28;20026;-89
2021/09/29 05:37:55;;;;;;;12.30;5.68;;;;;;;;;;5020872;28;20159;-88
2021/09/29 05:40:21;;;;;;;6.80;4.70;;;;;;;;;;5022768;28;20022;-86
2021/09/29 05:42:48;;;;;;;13.82;5.43;;;;;;;;;;5022070;28;20508;-86
2021/09/29 05:45:13;;;;;;;13.52;5.32;;;;;;;;;;5041133;28;20033;-87
2021/09/29 05:47:39;;;;;;;11.90;5.80;;;;;;;;;;5041177;28;20040;-87
2021/09/29 05:50:06;;;;;;;13.23;5.03;;;;;;;;;;5041646;28;20480;-87
2021/09/29 05:52:31;;;;;;;10.93;5.75;;;;;;;;;;5024572;28;20026;-88
2021/09/29 05:54:56;;;;;;;10.20;5.40;;;;;;;;;;5042360;28;20098;-88
2021/09/29 05:57:22;;;;;;;18.67;6.20;;;;;;;;;;5042208;28;20480;-86
2021/09/29 05:59:48;;;;;;;10.52;5.20;;;;;;;;;;5034728;28;20022;-86
2021/09/29 06:02:13;;;;;;;20.08;6.10;;;;;;;;;;5034580;28;20076;-86
2021/09/29 06:04:41;;;;;;;14.10;5.75;;;;;;;;;;5033803;28;20025;-86
2021/09/29 06:07:08;;;;;;;14.27;5.57;;;;;;;;;;5034795;28;20101;-86
2021/09/29 06:09:33;;;;;;;11.05;5.60;;;;;;;;;;5035103;28;20168;-86
2021/09/29 06:11:59;;;;;;;14.20;5.82;;;;;;;;;;5017311;28;20112;-86
2021/09/29 06:14:24;;;;;;;17.25;7.25;;;;;;;;;;5034501;28;20052;-86
2021/09/29 06:16:57;;;;;;;9.25;5.22;;;;;;;;;;5034803;28;20056;-85
2021/09/29 06:19:23;;;;;;;9.75;5.60;;;;;;;;;;5034757;28;20109;-86
2021/09/29 06:21:48;;;;;;;13.75;6.57;;;;;;;;;;5034858;28;20045;-87
2021/09/29 06:24:14;;;;;;;12.07;5.90;;;;;;;;;;5036165;28;20060;-86
2021/09/29 06:26:40;;;;;;;14.88;5.90;;;;;;;;;;5035614;28;20025;-86
2021/09/29 06:29:05;;;;;;;15.55;5.85;;;;;;;;;;5036547;28;20029;-86
2021/09/29 06:31:30;;;;;;;25.08;7.90;;;;;;;;;;5035012;28;20029;-86
2021/09/29 06:33:56;;;;;;;15.43;5.25;;;;;;;;;;5017105;28;20025;-86
2021/09/29 06:36:21;;;;;;;13.48;5.68;;;;;;;;;;5034368;28;20118;-86
2021/09/29 06:38:46;;;;;;;18.85;6.00;;;;;;;;;;5016407;28;20548;-87
2021/09/29 06:41:11;;;;;;;11.02;5.05;;;;;;;;;;5016235;28;20022;-87
2021/09/29 06:43:37;;;;;;;9.20;5.25;;;;;;;;;;5034150;28;20554;-86
2021/09/29 06:46:02;;;;;;;11.50;5.78;;;;;;;;;;5016365;28;20022;-86
2021/09/29 06:48:28;;;;;;;18.77;5.10;;;;;;;;;;5016122;28;20017;-86
2021/09/29 06:50:53;;;;;;;18.20;5.80;;;;;;;;;;5016095;28;20021;-86
2021/09/29 06:53:21;;;;;;;13.82;5.45;;;;;;;;;;5016293;28;20022;-87
2021/09/29 06:55:47;;;;;;;12.80;5.50;;;;;;;;;;5034159;28;20063;-86
2021/09/29 06:58:13;;;;;;;7.75;5.07;;;;;;;;;;5023067;28;20018;-86
2021/09/29 07:00:38;;;;;;;8.63;4.78;;;;;;;;;;5017323;28;20021;-87
2021/09/29 07:03:04;;;;;;;13.25;4.60;;;;;;;;;;5016371;28;20025;-86
2021/09/29 07:05:29;;;;;;;12.35;4.45;;;;;;;;;;5040365;28;20507;-86
2021/09/29 07:07:56;;;;;;;9.88;4.32;;;;;;;;;;5015492;28;20025;-86
2021/09/29 07:10:23;;;;;;;10.88;4.47;;;;;;;;;;5033389;28;20117;-86
2021/09/29 07:12:48;;;;;;;17.20;4.65;;;;;;;;;;5033840;28;20018;-86
2021/09/29 07:15:14;;;;;;;12.63;4.47;;;;;;;;;;5015793;28;20029;-86
2021/09/29 07:17:40;;;;;;;11.13;4.50;;;;;;;;;;5033891;28;20033;-86
2021/09/29 07:20:09;;;;;;;11.30;4.45;;;;;;;;;;5015696;28;20492;-86
2021/09/29 07:22:35;;;;;;;13.02;5.07;;;;;;;;;;5033879;28;20051;-86
2021/09/29 07:25:00;;;;;;;7.28;3.75;;;;;;;;;;5017207;28;20045;-86
2021/09/29 07:27:26;;;;;;;8.98;4.57;;;;;;;;;;5034484;28;20061;-86
2021/09/29 07:29:51;;;;;;;11.60;3.95;;;;;;;;;;5017614;28;20079;-86
2021/09/29 07:32:17;;;;;;;12.25;4.18;;;;;;;;;;5034946;28;20086;-86
2021/09/29 07:34:42;;;;;;;5.72;3.55;;;;;;;;;;5034385;28;20076;-86
2021/09/29 07:37:07;;;;;;;5.88;3.38;;;;;;;;;;5016313;28;20455;-86
2021/09/29 07:39:33;;;;;;;12.48;3.67;;;;;;;;;;5033303;28;20025;-86
2021/09/29 07:41:58;;;;;;;7.30;3.20;;;;;;;;;;5016175;28;20025;-86
2021/09/29 07:44:23;;;;;;;7.88;3.45;;;;;;;;;;5033846;28;20079;-86
2021/09/29 07:46:49;;;;;;;10.48;3.63;;;;;;;;;;5033656;28;20104;-86
2021/09/29 07:49:16;;;;;;;6.15;3.38;;;;;;;;;;5033841;28;20108;-86
2021/09/29 07:51:42;;;;;;;11.77;3.88;;;;;;;;;;5037833;28;20021;-86
2021/09/29 07:54:07;;;;;;;7.53;3.08;;;;;;;;;;5015610;28;20021;-87
2021/09/29 07:56:32;;;;;;;7.50;3.00;;;;;;;;;;5033301;28;20392;-87
2021/09/29 07:58:58;;;;;;;7.85;3.33;;;;;;;;;;5015152;28;20033;-86
2021/09/29 08:01:24;;;;;;;8.10;3.30;;;;;;;;;;5034316;28;20535;-86
2021/09/29 08:03:49;;;;;;;11.60;3.40;;;;;;;;;;5015738;28;20393;-86
2021/09/29 08:06:15;;;;;;;7.68;3.30;;;;;;;;;;5018425;28;20022;-86
2021/09/29 08:08:40;;;;;;;7.43;3.38;;;;;;;;;;4998480;28;20393;-86
2021/09/29 08:11:06;;;;;;;9.27;4.07;;;;;;;;;;5000733;28;20026;-86
2021/09/29 08:13:32;;;;;;;8.43;4.00;;;;;;;;;;5014850;28;20025;-86
2021/09/29 08:15:59;;;;;;;10.65;4.13;;;;;;;;;;5004080;28;20022;-85
2021/09/29 08:18:24;;;;;;;8.88;3.80;;;;;;;;;;4994866;28;20202;-86
2021/09/29 08:20:49;;;;;;;10.65;4.38;;;;;;;;;;5014670;28;20104;-86
2021/09/29 08:23:23;;;;;;;14.27;4.22;;;;;;;;;;5022284;28;20060;-87
2021/09/29 08:28:40;;;;;;;12.48;4.47;;;;;;;;;;5035813;28;20550;-86
2021/09/29 08:36:20;;;;;;;8.38;3.72;;;;;;;;;;5022447;28;20030;-86
2021/09/29 08:41:36;;;;;;;7.72;3.97;;;;;;;;;;5016386;28;20389;-85
2021/09/29 08:44:07;;;;;;;8.68;3.90;;;;;;;;;;4999023;28;20393;-85
2021/09/29 08:46:45;;;;;;;7.90;3.58;;;;;;;;;;4998892;28;20083;-86
2021/09/29 08:49:20;;;;;;;7.03;3.20;;;;;;;;;;5014862;28;20030;-86
2021/09/29 08:52:08;;;;;;;9.95;3.85;;;;;;;;;;4998835;28;20117;-86
2021/09/29 08:54:57;;;;;;;6.88;3.50;;;;;;;;;;5024474;28;20020;-86
2021/09/29 09:16:32;;;;;;;6.88;3.75;;;;;;;;;;5037152;28;20083;-87
2021/09/29 09:19:03;;;;;;;8.00;3.60;;;;;;;;;;5018234;28;20025;-87
2021/09/29 09:21:30;;;;;;;8.50;3.28;;;;;;;;;;5018232;28;20017;-87
2021/09/29 09:23:56;;;;;;;7.68;2.80;;;;;;;;;;5042354;28;20026;-86
2021/09/29 09:26:24;;;;;;;8.30;3.00;;;;;;;;;;5018321;28;20396;-86
2021/09/29 09:29:03;;;;;;;7.45;2.90;;;;;;;;;;5035972;28;20032;-87
2021/09/29 09:31:29;;;;;;;8.70;2.92;;;;;;;;;;5018743;28;20025;-87
2021/09/29 09:33:59;;;;;;;5.40;2.92;;;;;;;;;;5019965;28;20036;-86
2021/09/29 09:36:47;;;;;;;7.75;3.00;;;;;;;;;;5018564;28;20511;-87
2021/09/29 09:39:16;;;;;;;9.05;3.15;;;;;;;;;;5038349;28;20033;-86
2021/09/29 09:41:53;;;;;;;7.57;2.35;;;;;;;;;;5026726;28;20051;-86
2021/09/29 09:44:27;;;;;;;7.85;2.60;;;;;;;;;;5020340;28;20065;-86
2021/09/29 09:47:02;;;;;;;6.32;2.20;;;;;;;;;;5037108;28;20123;-87
2021/09/29 09:49:28;;;;;;;12.77;2.40;;;;;;;;;;5040630;28;20449;-88
2021/09/29 09:51:56;;;;;;;13.27;2.55;;;;;;;;;;5017442;28;20102;-86
2021/09/29 09:54:32;;;;;;;10.07;2.78;;;;;;;;;;5017654;28;20029;-87
2021/09/29 09:56:58;;;;;;;6.50;2.72;;;;;;;;;;5018015;28;20022;-85
2021/09/29 09:59:30;;;;;;;9.80;2.75;;;;;;;;;;5034854;28;20059;-86
2021/09/29 10:01:56;;;;;;;7.68;3.40;;;;;;;;;;5035367;28;20079;-85
2021/09/29 10:04:22;;;;;;;5.20;2.30;;;;;;;;;;5019920;28;20036;-87
2021/09/29 10:06:47;;;;;;;6.38;2.40;;;;;;;;;;5022853;28;20026;-86
2021/09/29 10:14:33;;;;;;;7.05;3.47;;;;;;;;;;5041872;28;20029;-86
2021/09/29 10:28:00;;;;;;;11.45;3.05;;;;;;;;;;5041557;28;20028;-87
2021/09/29 10:30:37;;;;;;;7.57;3.63;;;;;;;;;;5041066;28;20025;-86
2021/09/29 10:33:04;;;;;;;9.77;2.97;;;;;;;;;;5040359;28;20034;-88
2021/09/29 10:44:15;;;;;;;5.75;3.05;;;;;;;;;;5041318;28;20039;-88
2021/09/29 11:28:13;;;;;;;2.45;1.70;;;;;;;;;;5038794;28;20547;-88
2021/09/29 11:30:56;;;;;;;4.38;1.60;;;;;;;;;;5024512;28;20045;-88
2021/09/29 11:33:31;;;;;;;3.13;1.92;;;;;;;;;;5039289;28;20428;-87
2021/09/29 11:36:04;;;;;;;4.68;1.60;;;;;;;;;;5047517;28;20033;-87
2021/09/29 12:09:33;;;;;;;6.78;2.35;;;;;;;;;;5045034;28;20083;-88
2021/09/29 12:12:21;;;;;;;4.55;2.30;;;;;;;;;;5044619;28;20464;-88
2021/09/29 12:14:57;;;;;;;3.92;2.03;;;;;;;;;;5044901;28;20026;-87
2021/09/29 12:17:28;;;;;;;3.70;2.15;;;;;;;;;;5043614;28;20044;-87
2021/09/29 12:20:11;;;;;;;2.65;1.75;;;;;;;;;;5043526;28;20025;-88
2021/09/29 12:22:53;;;;;;;2.75;1.92;;;;;;;;;;5025942;28;20433;-88
2021/09/29 12:25:35;;;;;;;2.65;1.80;;;;;;;;;;5043466;28;20022;-87
2021/09/29 12:36:14;;;;;;;1.90;1.80;;;;;;;;;;5042245;28;20026;-87
2021/09/29 12:38:42;;;;;;;1.58;1.30;;;;;;;;;;5041686;28;20109;-88
2021/09/29 12:41:08;;;;;;;1.98;1.70;;;;;;;;;;5041220;28;20103;-87
2021/09/29 12:43:33;;;;;;;1.85;1.52;;;;;;;;;;5023887;28;20025;-87
2021/09/29 12:45:58;;;;;;;1.05;1.00;;;;;;;;;;5023493;28;20052;-88
2021/09/29 12:48:27;;;;;;;1.10;1.00;;;;;;;;;;5042080;28;20093;-88
2021/09/29 12:51:01;;;;;;;2.28;0.80;;;;;;;;;;5042364;28;20021;-88
2021/09/29 12:53:47;;;;;;;1.73;0.80;;;;;;;;;;5040612;28;20033;-86
2021/09/29 12:56:17;;;;;;;3.25;0.70;;;;;;;;;;5042131;28;20033;-86
2021/09/29 12:58:42;;;;;;;3.25;1.08;;;;;;;;;;5042609;28;20021;-88
2021/09/29 13:01:08;;;;;;;1.77;0.50;;;;;;;;;;5042922;28;20555;-87
2021/09/29 13:03:33;;;;;;;0.90;0.60;;;;;;;;;;5042742;28;20044;-87
2021/09/29 13:05:59;;;;;;;3.17;0.65;;;;;;;;;;5018289;28;20033;-87
2021/09/29 13:08:25;;;;;;;0.65;0.50;;;;;;;;;;5037167;28;20121;-87
2021/09/29 13:10:51;;;;;;;0.40;0.40;;;;;;;;;;5019352;28;20033;-86
2021/09/29 13:13:17;;;;;;;0.55;0.50;;;;;;;;;;5019160;28;20025;-86
2021/09/29 13:15:45;;;;;;;0.85;0.60;;;;;;;;;;5036743;28;20036;-86
2021/09/29 13:21:08;;;;;;;1.90;0.57;;;;;;;;;;5037879;28;20022;-86
2021/09/29 13:26:14;;;;;;;1.40;0.60;;;;;;;;;;5036888;28;20017;-86
2021/09/29 13:36:51;;;;;;;0.77;0.50;;;;;;;;;;5037651;28;20040;-86
2021/09/29 13:39:19;;;;;;;0.60;0.60;;;;;;;;;;5037859;28;20029;-87
2021/09/29 13:41:48;;;;;;;0.60;0.35;;;;;;;;;;5021267;28;20179;-88
2021/09/29 13:44:17;;;;;;;0.30;0.30;;;;;;;;;;5040138;28;20021;-88
2021/09/29 13:46:42;;;;;;;3.50;0.60;;;;;;;;;;5019295;28;20022;-89
2021/09/29 13:49:09;;;;;;;0.80;0.40;;;;;;;;;;5007822;28;20473;-85
2021/09/29 13:51:36;;;;;;;0.40;0.40;;;;;;;;;;5016207;28;20029;-86
2021/09/29 13:54:10;;;;;;;1.95;0.70;;;;;;;;;;5010220;28;20100;-86
2021/09/29 13:56:45;;;;;;;2.28;0.70;;;;;;;;;;5034831;28;20025;-85
2021/09/29 14:29:28;;;;;;;1.05;0.63;;;;;;;;;;5037459;28;20037;-87
2021/09/29 14:34:25;;;;;;;1.20;0.80;;;;;;;;;;5034718;28;20029;-88
2021/09/29 14:36:50;;;;;;;0.55;0.55;;;;;;;;;;5036863;28;20083;-88
2021/09/29 14:39:17;;;;;;;1.95;0.85;;;;;;;;;;5018917;28;20401;-88
2021/09/29 14:41:43;;;;;;;2.53;1.00;;;;;;;;;;5015271;28;20028;-87
2021/09/29 14:44:08;;;;;;;1.63;0.70;;;;;;;;;;5016063;28;20026;-87
2021/09/29 14:46:34;;;;;;;1.38;0.52;;;;;;;;;;5014645;28;20540;-87
2021/09/29 14:48:59;;;;;;;1.17;0.63;;;;;;;;;;5021936;28;20026;-88
2021/09/29 14:51:25;;;;;;;1.30;0.55;;;;;;;;;;5029862;28;20034;-87
2021/09/29 14:53:53;;;;;;;1.85;0.70;;;;;;;;;;5032168;28;20473;-88
2021/09/29 14:56:19;;;;;;;1.35;0.60;;;;;;;;;;4997683;28;20018;-87
2021/09/29 14:58:45;;;;;;;1.58;0.70;;;;;;;;;;5000762;28;20535;-87
2021/09/29 15:01:11;;;;;;;1.90;0.80;;;;;;;;;;4998462;28;20105;-86
2021/09/29 15:03:37;;;;;;;2.35;1.33;;;;;;;;;;5016411;28;20026;-87
2021/09/29 15:06:03;;;;;;;1.50;0.50;;;;;;;;;;5017327;28;20481;-87
2021/09/29 15:08:32;;;;;;;1.90;0.30;;;;;;;;;;5047756;28;20017;-87
2021/09/29 15:10:58;;;;;;;2.00;0.50;;;;;;;;;;5054447;28;20048;-87
2021/09/29 15:13:28;;;;;;;0.98;0.50;;;;;;;;;;5037519;28;20485;-87
2021/09/29 15:16:02;;;;;;;2.42;0.55;;;;;;;;;;5042533;28;20084;-86
2021/09/29 15:18:54;;;;;;;2.80;0.30;;;;;;;;;;5037327;28;20030;-85
2021/09/29 15:46:21;;;;;;;4.70;0.60;;;;;;;;;;5007141;28;20048;-87
2021/09/29 15:48:49;;;;;;;2.97;0.75;;;;;;;;;;5035266;28;20443;-85
2021/09/29 15:56:13;;;;;;;1.13;0.40;;;;;;;;;;5025271;28;20056;-86
2021/09/29 16:01:15;;;;;;;3.50;0.95;;;;;;;;;;5017449;28;20025;-86
2021/09/29 16:06:36;;;;;;;0.93;0.55;;;;;;;;;;5018086;28;20041;-86
2021/09/29 16:30:52;;;;;;;7.72;0.95;;;;;;;;;;5017982;28;20087;-88
2021/09/29 16:35:58;;;;;;;1.23;0.50;;;;;;;;;;5017747;28;20402;-87
2021/09/29 16:38:23;;;;;;;1.40;0.80;;;;;;;;;;5036481;28;20116;-86
2021/09/29 16:40:48;;;;;;;3.40;0.73;;;;;;;;;;5017872;28;20051;-87
2021/09/29 16:43:18;;;;;;;5.18;0.77;;;;;;;;;;5037590;28;20110;-86
2021/09/29 16:45:43;;;;;;;2.80;1.00;;;;;;;;;;5041670;28;20029;-86
2021/09/29 16:48:13;;;;;;;4.63;0.80;;;;;;;;;;5053071;28;20060;-86
2021/09/29 16:50:53;;;;;;;1.60;0.52;;;;;;;;;;5046735;28;20079;-86
2021/09/29 16:53:18;;;;;;;4.07;0.88;;;;;;;;;;5039539;28;20531;-86
2021/09/29 16:55:46;;;;;;;4.18;0.73;;;;;;;;;;5042077;28;20033;-86
2021/09/29 17:03:35;;;;;;;4.47;1.00;;;;;;;;;;5024899;28;20083;-86
2021/09/29 17:06:00;;;;;;;2.17;0.70;;;;;;;;;;5036098;28;20481;-86
2021/09/29 17:08:25;;;;;;;3.83;0.75;;;;;;;;;;5036561;28;20033;-86
2021/09/29 17:10:51;;;;;;;3.20;0.97;;;;;;;;;;5035685;28;20037;-86
2021/09/29 17:13:19;;;;;;;3.00;1.38;;;;;;;;;;5037148;28;20033;-87
2021/09/29 17:15:45;;;;;;;5.10;1.90;;;;;;;;;;5036750;28;20465;-87
2021/09/29 17:18:11;;;;;;;4.95;1.05;;;;;;;;;;5038053;28;20064;-87
2021/09/29 17:20:36;;;;;;;2.75;1.08;;;;;;;;;;5037041;28;20432;-87
2021/09/29 17:23:03;;;;;;;2.67;1.30;;;;;;;;;;5036267;28;20024;-87
2021/09/29 17:25:32;;;;;;;8.85;3.28;;;;;;;;;;5036125;28;20017;-86
2021/09/29 17:27:58;;;;;;;8.15;5.68;;;;;;;;;;5036248;28;20029;-87
2021/09/29 17:30:28;;;;;;;3.83;2.70;;;;;;;;;;5036161;28;20036;-86
2021/09/29 17:35:34;;;;;;;2.75;0.80;;;;;;;;;;5042478;28;20033;-87
2021/09/29 17:48:02;;;;;;;3.15;0.90;;;;;;;;;;5039895;28;20459;-87
2021/09/29 17:52:17;;;;;;;2.75;1.40;;;;;;;;;;5040646;28;20052;-88
2021/09/29 17:54:43;;;;;;;4.10;1.02;;;;;;;;;;5039759;28;20029;-86
2021/09/29 17:57:09;;;;;;;4.22;1.02;;;;;;;;;;5039930;28;20121;-87
2021/09/29 17:59:38;;;;;;;1.85;0.82;;;;;;;;;;5038452;28;20026;-87
2021/09/29 18:02:08;;;;;;;4.90;1.00;;;;;;;;;;5040354;28;20018;-88
2021/09/29 18:04:37;;;;;;;3.22;1.00;;;;;;;;;;5049271;28;20021;-87
2021/09/29 18:09:28;;;;;;;2.22;1.92;;;;;;;;;;5039185;28;20091;-86
2021/09/29 18:11:55;;;;;;;4.80;0.93;;;;;;;;;;5039000;28;20033;-87
2021/09/29 18:14:23;;;;;;;5.20;0.90;;;;;;;;;;5039127;28;20029;-87
2021/09/29 18:16:48;;;;;;;2.65;0.90;;;;;;;;;;5039089;28;20088;-87
2021/09/29 18:19:14;;;;;;;4.28;1.27;;;;;;;;;;5019020;28;20024;-87
2021/09/29 18:21:39;;;;;;;4.53;0.93;;;;;;;;;;5021456;28;20018;-87
2021/09/29 18:24:04;;;;;;;4.40;0.95;;;;;;;;;;5039752;28;20037;-87
2021/09/29 18:26:30;;;;;;;5.05;1.52;;;;;;;;;;5021954;28;20029;-87
2021/09/29 18:28:55;;;;;;;2.83;0.90;;;;;;;;;;5022219;28;20056;-87
2021/09/29 18:31:21;;;;;;;1.77;0.98;;;;;;;;;;5022538;28;20025;-88
2021/09/29 18:33:47;;;;;;;4.43;1.15;;;;;;;;;;5038173;28;20026;-87
2021/09/29 18:36:14;;;;;;;3.20;1.48;;;;;;;;;;5038442;28;20539;-89
2021/09/29 18:38:41;;;;;;;3.00;0.93;;;;;;;;;;5039001;28;20025;-88
2021/09/29 18:41:08;;;;;;;4.00;1.27;;;;;;;;;;5026175;28;20527;-88
2021/09/29 18:43:36;;;;;;;6.97;1.38;;;;;;;;;;5041195;28;20099;-88
2021/09/29 18:46:02;;;;;;;3.60;1.10;;;;;;;;;;5039978;28;20018;-88
2021/09/29 18:48:27;;;;;;;1.38;0.55;;;;;;;;;;5037614;28;20022;-87
2021/09/29 18:50:54;;;;;;;4.05;1.00;;;;;;;;;;5033090;28;20117;-88
2021/09/29 18:53:20;;;;;;;4.30;0.80;;;;;;;;;;5017562;28;20113;-88
2021/09/29 18:55:50;;;;;;;3.92;0.80;;;;;;;;;;5024022;28;20049;-86
2021/09/29 19:03:51;;;;;;;3.50;0.60;;;;;;;;;;5037298;28;20123;-87
2021/09/29 19:09:01;;;;;;;3.13;0.82;;;;;;;;;;5019873;28;20132;-86
2021/09/29 19:11:26;;;;;;;3.63;0.90;;;;;;;;;;5017527;28;20026;-86